Time;durP1;ratioP1;P1;durP2;ratioP2;P2;SDS_P1;SDS_P2;PMS_P1;PMS_P2;Temp;Humidity;BMP_temperature;BMP_pressure;BME280_temperature;BME280_humidity;BME280_pressure;Samples;Min_cycle;Max_cycle;Signal;HPM_P1;HPM_P2
2023/01/10 00:00:34;;;;;;;;;;;;;;;19.04;38.27;100342.73;106052;1283;59250;-82
2023/01/10 00:03:00;;;;;;;;;;;;;;;19.04;38.35;100352.16;106080;1283;60568;-82
2023/01/10 00:05:26;;;;;;;;;;;;;;;19.04;38.29;100348.96;106174;1283;60929;-83
2023/01/10 00:07:52;;;;;;;;;;;;;;;19.04;38.22;100349.66;106129;1283;60318;-83
2023/01/10 00:10:18;;;;;;;;;;;;;;;19.04;38.28;100341.45;106082;1283;60539;-83
2023/01/10 00:15:28;;;;;;;;;;;;;;;19.04;38.28;100328.83;106176;1283;72323;-83
2023/01/10 00:17:53;;;;;;;;;;;;;;;19.05;38.22;100330.91;106059;1283;60453;-83
2023/01/10 00:20:22;;;;;;;;;;;;;;;19.05;38.16;100335.68;106228;1283;60427;-83
2023/01/10 00:22:49;;;;;;;;;;;;;;;19.04;38.20;100333.05;106062;1283;61459;-83
2023/01/10 00:25:15;;;;;;;;;;;;;;;19.05;38.20;100330.36;106101;1283;73560;-83
2023/01/10 00:27:44;;;;;;;;;;;;;;;19.05;38.19;100328.20;106089;1283;60494;-83
2023/01/10 00:30:13;;;;;;;;;;;;;;;19.05;38.16;100329.62;106119;1283;60359;-83
2023/01/10 00:32:42;;;;;;;;;;;;;;;19.06;38.06;100337.60;105723;1283;61014;-83
2023/01/10 00:35:11;;;;;;;;;;;;;;;19.05;38.18;100340.30;106039;1283;72492;-83
2023/01/10 00:37:39;;;;;;;;;;;;;;;19.06;38.10;100346.14;106044;1283;73693;-83
2023/01/10 00:40:09;;;;;;;;;;;;;;;19.06;38.04;100340.25;106060;1283;60917;-83
2023/01/10 00:45:20;;;;;;;;;;;;;;;19.06;38.10;100337.92;106187;1286;72612;-83
2023/01/10 00:47:46;;;;;;;;;;;;;;;19.07;38.02;100351.45;106046;1283;73578;-82
2023/01/10 00:50:12;;;;;;;;;;;;;;;19.06;37.98;100357.52;106042;1283;60503;-83
2023/01/10 00:52:38;;;;;;;;;;;;;;;19.06;38.12;100361.64;106232;1287;59349;-83
2023/01/10 00:55:04;;;;;;;;;;;;;;;19.07;38.22;100360.16;106183;1287;60549;-83
2023/01/10 00:57:33;;;;;;;;;;;;;;;19.07;38.16;100357.68;106045;1283;60440;-83
2023/01/10 00:59:58;;;;;;;;;;;;;;;19.07;38.02;100353.19;106205;1283;59169;-83
2023/01/10 01:02:24;;;;;;;;;;;;;;;19.07;38.02;100350.70;106213;1283;60455;-82
2023/01/10 01:04:50;;;;;;;;;;;;;;;19.08;38.04;100348.02;106087;1283;60600;-82
2023/01/10 01:07:15;;;;;;;;;;;;;;;19.08;38.04;100346.39;106085;1283;60527;-82
2023/01/10 01:12:28;;;;;;;;;;;;;;;19.08;37.94;100333.69;106223;1283;60350;-83
2023/01/10 01:14:54;;;;;;;;;;;;;;;19.08;38.08;100334.39;106089;1285;60440;-83
2023/01/10 01:17:19;;;;;;;;;;;;;;;19.09;38.01;100330.99;106040;1283;60541;-83
2023/01/10 01:19:45;;;;;;;;;;;;;;;19.08;38.03;100326.20;106057;1283;59390;-82
2023/01/10 01:22:12;;;;;;;;;;;;;;;19.09;38.08;100312.08;106095;1283;60334;-82
2023/01/10 01:24:38;;;;;;;;;;;;;;;19.09;38.06;100296.92;105996;1283;60514;-82
2023/01/10 01:27:06;;;;;;;;;;;;;;;19.09;38.01;100294.73;106176;1283;60477;-83
2023/01/10 01:29:32;;;;;;;;;;;;;;;19.09;37.91;100300.10;106043;1283;60423;-82
2023/01/10 01:31:58;;;;;;;;;;;;;;;19.09;38.05;100303.30;106069;1283;60524;-82
2023/01/10 01:34:23;;;;;;;;;;;;;;;19.10;37.99;100306.82;106193;1283;60469;-82
2023/01/10 01:36:50;;;;;;;;;;;;;;;19.10;37.88;100313.02;106019;1283;58874;-82
2023/01/10 01:39:16;;;;;;;;;;;;;;;19.10;38.07;100317.67;106054;1283;60469;-82
2023/01/10 01:41:57;;;;;;;;;;;;;;;19.11;37.97;100310.89;106250;1283;60453;-83
2023/01/10 01:44:23;;;;;;;;;;;;;;;19.10;37.92;100302.89;106056;1283;73736;-82
2023/01/10 01:46:49;;;;;;;;;;;;;;;19.11;38.00;100300.67;106050;1283;59832;-82
2023/01/10 01:49:16;;;;;;;;;;;;;;;19.11;37.97;100304.40;106015;1283;60455;-82
2023/01/10 01:51:51;;;;;;;;;;;;;;;19.11;38.02;100298.54;105982;1283;72527;-82
2023/01/10 01:54:17;;;;;;;;;;;;;;;19.11;37.87;100293.18;106241;1283;73750;-83
2023/01/10 01:56:51;;;;;;;;;;;;;;;19.11;37.94;100291.39;106074;1283;59317;-83
2023/01/10 01:59:35;;;;;;;;;;;;;;;19.11;37.91;100289.84;106203;1283;60431;-83
2023/01/10 02:02:02;;;;;;;;;;;;;;;19.12;37.92;100289.23;106235;1283;72808;-82
2023/01/10 02:04:30;;;;;;;;;;;;;;;19.12;37.76;100288.86;106121;1283;73489;-82
2023/01/10 02:06:55;;;;;;;;;;;;;;;19.12;37.98;100284.59;106085;1283;61332;-82
2023/01/10 02:10:01;;;;;;;;;;;;;;;19.12;37.87;100283.52;106071;1283;61234;-82
2023/01/10 02:12:29;;;;;;;;;;;;;;;19.13;37.68;100271.86;105281;1294;72574;-83
2023/01/10 02:14:58;;;;;;;;;;;;;;;19.13;37.92;100276.15;105187;1295;76081;-83
2023/01/10 02:17:23;;;;;;;;;;;;;;;19.13;37.81;100285.19;105148;1294;61402;-83
2023/01/10 02:19:52;;;;;;;;;;;;;;;19.14;37.77;100286.78;105119;1293;61517;-83
2023/01/10 02:22:38;;;;;;;;;;;;;;;19.14;37.82;100294.96;105256;1294;73897;-83
2023/01/10 02:25:22;;;;;;;;;;;;;;;19.14;37.76;100295.15;105304;1296;74897;-83
2023/01/10 02:27:57;;;;;;;;;;;;;;;19.14;37.73;100285.85;105215;1293;61446;-83
2023/01/10 02:30:42;;;;;;;;;;;;;;;19.14;37.69;100286.55;105317;1294;61201;-83
2023/01/10 02:33:10;;;;;;;;;;;;;;;19.15;37.80;100289.38;105316;1294;72591;-83
2023/01/10 02:35:36;;;;;;;;;;;;;;;19.15;37.71;100286.69;105213;1293;73390;-83
2023/01/10 02:38:13;;;;;;;;;;;;;;;19.15;37.78;100287.35;105212;1293;61290;-83
2023/01/10 02:40:39;;;;;;;;;;;;;;;19.15;37.74;100292.01;105313;1296;61263;-82
2023/01/10 02:43:04;;;;;;;;;;;;;;;19.15;37.77;100293.60;105541;1283;61247;-82
2023/01/10 02:45:55;;;;;;;;;;;;;;;19.15;37.70;100297.53;106205;1283;73828;-82
2023/01/10 02:48:20;;;;;;;;;;;;;;;19.16;37.67;100294.27;106041;1283;61275;-82
2023/01/10 02:50:49;;;;;;;;;;;;;;;19.16;37.78;100286.75;106073;1283;59364;-82
2023/01/10 02:53:26;;;;;;;;;;;;;;;19.17;37.68;100275.30;106194;1283;72769;-82
2023/01/10 02:55:57;;;;;;;;;;;;;;;19.16;37.75;100269.30;106200;1283;75524;-82
2023/01/10 02:58:28;;;;;;;;;;;;;;;19.17;37.65;100269.42;106188;1283;61148;-82
2023/01/10 03:00:57;;;;;;;;;;;;;;;19.17;37.76;100268.15;106028;1285;61306;-82
2023/01/10 03:03:31;;;;;;;;;;;;;;;19.17;37.77;100267.41;106078;1283;72794;-82
2023/01/10 03:05:58;;;;;;;;;;;;;;;19.17;37.75;100270.44;106186;1283;75423;-82
2023/01/10 03:08:33;;;;;;;;;;;;;;;19.18;37.75;100275.61;106209;1283;61129;-83
2023/01/10 03:11:00;;;;;;;;;;;;;;;19.17;37.69;100277.07;106055;1288;61196;-83
2023/01/10 03:13:28;;;;;;;;;;;;;;;19.17;37.69;100273.66;105982;1283;72399;-82
2023/01/10 03:15:53;;;;;;;;;;;;;;;19.18;37.72;100274.00;106182;1283;74262;-83
2023/01/10 03:18:21;;;;;;;;;;;;;;;19.18;37.57;100273.06;106059;1283;61240;-83
2023/01/10 03:20:48;;;;;;;;;;;;;;;19.18;37.72;100267.55;106088;1283;61349;-83
2023/01/10 03:23:17;;;;;;;;;;;;;;;19.18;37.64;100266.27;106021;1288;72414;-83
2023/01/10 03:25:48;;;;;;;;;;;;;;;19.18;37.68;100266.11;106158;1287;75261;-83
2023/01/10 03:28:20;;;;;;;;;;;;;;;19.19;37.77;100264.65;105962;1283;61266;-83
2023/01/10 03:30:49;;;;;;;;;;;;;;;19.19;37.65;100261.23;106043;1283;61266;-82
2023/01/10 03:33:15;;;;;;;;;;;;;;;19.18;37.65;100259.85;106027;1283;73421;-82
2023/01/10 03:35:59;;;;;;;;;;;;;;;19.19;37.64;100265.32;105951;1283;61167;-83
2023/01/10 03:38:28;;;;;;;;;;;;;;;19.19;37.63;100265.32;106206;1283;61288;-83
2023/01/10 03:41:03;;;;;;;;;;;;;;;19.19;37.59;100267.26;105991;1283;61243;-83
2023/01/10 03:46:37;;;;;;;;;;;;;;;19.20;37.68;100270.25;106180;1283;74518;-83
2023/01/10 03:49:05;;;;;;;;;;;;;;;19.20;37.66;100272.92;106205;1283;61180;-83
2023/01/10 03:51:31;;;;;;;;;;;;;;;19.20;37.65;100275.58;105997;1283;61150;-82
2023/01/10 03:54:00;;;;;;;;;;;;;;;19.20;37.56;100279.52;106042;1283;61337;-83
2023/01/10 03:56:26;;;;;;;;;;;;;;;19.21;37.55;100276.24;106172;1283;75300;-83
2023/01/10 03:59:05;;;;;;;;;;;;;;;;;;;;;
2023/01/10 04:01:33;;;;;;;;;;;;;;;19.21;37.46;100271.23;106064;1283;61182;-83
2023/01/10 04:03:59;;;;;;;;;;;;;;;19.21;37.53;100266.98;106175;1284;73548;-83
2023/01/10 04:06:25;;;;;;;;;;;;;;;19.21;37.52;100261.98;105849;1286;61347;-82
2023/01/10 04:08:50;;;;;;;;;;;;;;;19.21;37.48;100255.54;105855;1286;61281;-83
2023/01/10 04:11:16;;;;;;;;;;;;;;;19.21;37.50;100253.55;105844;1286;61266;-83
2023/01/10 04:13:41;;;;;;;;;;;;;;;19.22;37.55;100256.52;105886;1286;61435;-82
2023/01/10 04:16:07;;;;;;;;;;;;;;;19.23;37.51;100254.00;105736;1286;72434;-82
2023/01/10 04:18:33;;;;;;;;;;;;;;;19.22;37.69;100252.42;105826;1286;61343;-82
2023/01/10 04:20:59;;;;;;;;;;;;;;;19.23;37.47;100249.69;105709;1286;61356;-82
2023/01/10 04:23:25;;;;;;;;;;;;;;;19.23;37.48;100247.38;105875;1286;61157;-83
2023/01/10 04:25:51;;;;;;;;;;;;;;;19.23;37.63;100249.50;105853;1291;61372;-83
2023/01/10 04:28:16;;;;;;;;;;;;;;;19.24;37.50;100250.72;105743;1286;60232;-83
2023/01/10 04:30:42;;;;;;;;;;;;;;;19.24;37.51;100251.59;105959;1286;61436;-83
2023/01/10 04:33:09;;;;;;;;;;;;;;;19.24;37.60;100251.42;105843;1286;61240;-83
2023/01/10 04:35:34;;;;;;;;;;;;;;;19.24;37.48;100247.14;105863;1286;61195;-83
2023/01/10 04:38:00;;;;;;;;;;;;;;;19.25;37.48;100244.77;105985;1283;61279;-84
2023/01/10 04:40:28;;;;;;;;;;;;;;;19.25;37.50;100239.92;106052;1283;61425;-83
2023/01/10 04:42:53;;;;;;;;;;;;;;;19.25;37.57;100231.00;106075;1283;61767;-83
2023/01/10 04:45:20;;;;;;;;;;;;;;;19.25;37.57;100226.70;106184;1283;61357;-82
2023/01/10 04:47:54;;;;;;;;;;;;;;;19.25;37.52;100223.65;106204;1287;61384;-82
2023/01/10 04:50:21;;;;;;;;;;;;;;;19.25;37.61;100221.15;106099;1283;75416;-83
2023/01/10 04:52:46;;;;;;;;;;;;;;;19.26;37.53;100218.79;106115;1283;61361;-82
2023/01/10 04:55:14;;;;;;;;;;;;;;;19.26;37.54;100209.67;106215;1283;61219;-83
2023/01/10 04:57:40;;;;;;;;;;;;;;;19.27;37.54;100201.63;105976;1283;72329;-83
2023/01/10 05:00:33;;;;;;;;;;;;;;;19.26;37.54;100197.91;106211;1283;61386;-83
2023/01/10 05:02:58;;;;;;;;;;;;;;;19.27;37.55;100195.89;105286;1294;61272;-83
2023/01/10 05:05:24;;;;;;;;;;;;;;;19.27;37.41;100194.83;105173;1292;61283;-84
2023/01/10 05:07:55;;;;;;;;;;;;;;;19.27;37.56;100197.67;105183;1293;61418;-83
2023/01/10 05:10:21;;;;;;;;;;;;;;;19.27;37.46;100199.09;105064;1294;74635;-83
2023/01/10 05:12:48;;;;;;;;;;;;;;;19.27;37.46;100204.08;105156;1293;60162;-83
2023/01/10 05:15:14;;;;;;;;;;;;;;;19.26;37.56;100206.98;105156;1292;61731;-83
2023/01/10 05:17:40;;;;;;;;;;;;;;;19.26;37.46;100212.02;105158;1298;61293;-83
2023/01/10 05:20:06;;;;;;;;;;;;;;;19.26;37.51;100221.46;105078;1292;61244;-83
2023/01/10 05:22:31;;;;;;;;;;;;;;;19.25;37.52;100229.73;104908;1296;61421;-83
2023/01/10 05:25:00;;;;;;;;;;;;;;;19.25;37.34;100227.59;104916;1297;61308;-84
2023/01/10 05:27:26;;;;;;;;;;;;;;;19.25;37.49;100228.11;104875;1297;61335;-83
2023/01/10 05:29:52;;;;;;;;;;;;;;;19.25;37.51;100230.64;104887;1297;61294;-83
2023/01/10 05:32:18;;;;;;;;;;;;;;;19.23;37.37;100225.41;104970;1296;61366;-83
2023/01/10 05:35:10;;;;;;;;;;;;;;;19.21;37.46;100221.48;104951;1296;60040;-83
2023/01/10 05:37:35;;;;;;;;;;;;;;;19.18;37.35;100209.01;104766;1300;73424;-83
2023/01/10 05:40:01;;;;;;;;;;;;;;;19.16;37.57;100196.48;104741;1296;61310;-83
2023/01/10 05:42:27;;;;;;;;;;;;;;;19.15;37.43;100195.86;105025;1296;61480;-83
2023/01/10 05:44:53;;;;;;;;;;;;;;;19.14;37.41;100199.14;105089;1296;60121;-83
2023/01/10 05:47:45;;;;;;;;;;;;;;;19.12;37.46;100206.27;104998;1296;60952;-83
2023/01/10 05:50:11;;;;;;;;;;;;;;;19.07;37.41;100219.84;104715;1300;74456;-83
2023/01/10 05:52:37;;;;;;;;;;;;;;;19.02;37.40;100229.42;104656;1303;61469;-84
2023/01/10 05:55:04;;;;;;;;;;;;;;;18.97;37.51;100231.20;104710;1302;60050;-83
2023/01/10 05:57:29;;;;;;;;;;;;;;;18.92;37.37;100224.58;104696;1302;59834;-83
2023/01/10 05:59:55;;;;;;;;;;;;;;;18.87;37.47;100225.49;104769;1300;61612;-83
2023/01/10 06:02:21;;;;;;;;;;;;;;;18.81;37.55;100224.81;104700;1300;60340;-82
2023/01/10 06:04:47;;;;;;;;;;;;;;;18.75;37.62;100217.57;104544;1302;61176;-82
2023/01/10 06:07:13;;;;;;;;;;;;;;;18.72;37.81;100216.55;104796;1301;61299;-83
2023/01/10 06:09:38;;;;;;;;;;;;;;;18.72;37.92;100220.27;104927;1297;59647;-83
2023/01/10 06:12:04;;;;;;;;;;;;;;;18.74;37.76;100215.36;104974;1300;61186;-82
2023/01/10 06:14:29;;;;;;;;;;;;;;;18.74;37.86;100206.98;105146;1291;60422;-82
2023/01/10 06:16:55;;;;;;;;;;;;;;;18.74;37.77;100200.75;105537;1295;60652;-82
2023/01/10 06:19:20;;;;;;;;;;;;;;;18.74;37.88;100197.99;105489;1292;61551;-82
2023/01/10 06:21:46;;;;;;;;;;;;;;;18.76;37.67;100198.79;105491;1291;60715;-83
2023/01/10 06:24:11;;;;;;;;;;;;;;;18.78;37.79;100201.88;105450;1292;75325;-84
2023/01/10 06:26:37;;;;;;;;;;;;;;;18.80;37.71;100199.81;105615;1292;60296;-82
2023/01/10 06:29:03;;;;;;;;;;;;;;;18.80;37.75;100197.63;106061;1286;59999;-82
2023/01/10 06:31:28;;;;;;;;;;;;;;;18.79;37.77;100206.08;106169;1287;60980;-83
2023/01/10 06:33:54;;;;;;;;;;;;;;;18.78;37.76;100207.58;106072;1285;61288;-83
2023/01/10 06:36:20;;;;;;;;;;;;;;;18.77;37.67;100208.55;106083;1288;62116;-83
2023/01/10 06:38:48;;;;;;;;;;;;;;;18.72;37.75;100212.98;106106;1286;61328;-83
2023/01/10 06:41:14;;;;;;;;;;;;;;;18.66;37.77;100221.64;106166;1286;61292;-82
2023/01/10 06:43:44;;;;;;;;;;;;;;;18.58;37.91;100233.39;106181;1286;60564;-84
2023/01/10 06:46:10;;;;;;;;;;;;;;;18.52;38.05;100232.41;106446;1286;75453;-82
2023/01/10 06:48:36;;;;;;;;;;;;;;;18.47;38.17;100233.45;106447;1290;61210;-83
2023/01/10 06:51:02;;;;;;;;;;;;;;;18.42;38.35;100226.24;106465;1285;60401;-83
2023/01/10 06:53:28;;;;;;;;;;;;;;;18.39;38.31;100226.86;106209;1289;60335;-83
2023/01/10 06:55:53;;;;;;;;;;;;;;;18.36;38.25;100232.02;106516;1286;59935;-83
2023/01/10 06:58:19;;;;;;;;;;;;;;;18.34;38.46;100235.36;106447;1285;59240;-82
2023/01/10 07:00:45;;;;;;;;;;;;;;;18.34;38.48;100238.77;106428;1286;59474;-83
2023/01/10 07:03:10;;;;;;;;;;;;;;;18.35;38.65;100247.98;106460;1285;60155;-82
2023/01/10 07:05:38;;;;;;;;;;;;;;;18.35;38.55;100251.17;106380;1287;60630;-82
2023/01/10 07:08:03;;;;;;;;;;;;;;;18.37;38.70;100244.79;106492;1285;75445;-82
2023/01/10 07:10:29;;;;;;;;;;;;;;;18.42;38.63;100244.63;106524;1286;59489;-82
2023/01/10 07:12:55;;;;;;;;;;;;;;;18.48;38.50;100238.17;106509;1285;59448;-82
2023/01/10 07:15:20;;;;;;;;;;;;;;;18.56;38.73;100237.46;106328;1287;59457;-83
2023/01/10 07:17:46;;;;;;;;;;;;;;;18.64;38.67;100233.86;106639;1284;59208;-83
2023/01/10 07:20:12;;;;;;;;;;;;;;;18.72;38.75;100222.08;106588;1285;59523;-83
2023/01/10 07:22:37;;;;;;;;;;;;;;;18.80;38.63;100217.95;106548;1286;59788;-83
2023/01/10 07:25:04;;;;;;;;;;;;;;;18.86;38.72;100221.80;106606;1287;59494;-83
2023/01/10 07:27:31;;;;;;;;;;;;;;;18.93;38.76;100229.35;106618;1285;59293;-83
2023/01/10 07:29:57;;;;;;;;;;;;;;;18.99;38.68;100230.91;106072;1286;60399;-84
2023/01/10 07:32:23;;;;;;;;;;;;;;;19.04;38.77;100226.45;106172;1288;61283;-83
2023/01/10 07:34:49;;;;;;;;;;;;;;;19.09;38.77;100227.52;106160;1286;60079;-83
2023/01/10 07:37:16;;;;;;;;;;;;;;;19.13;38.75;100220.98;106037;1284;59681;-83
2023/01/10 07:39:42;;;;;;;;;;;;;;;19.16;38.78;100219.86;106115;1286;62383;-83
2023/01/10 07:42:10;;;;;;;;;;;;;;;19.20;38.78;100223.52;106143;1284;60920;-82
2023/01/10 07:44:37;;;;;;;;;;;;;;;19.23;38.72;100223.15;106053;1285;60202;-82
2023/01/10 07:47:02;;;;;;;;;;;;;;;19.25;38.90;100219.74;106055;1286;72384;-82
2023/01/10 07:49:28;;;;;;;;;;;;;;;19.29;38.79;100224.16;105969;1287;61343;-83
2023/01/10 07:52:06;;;;;;;;;;;;;;;19.31;39.05;100221.67;105844;1285;60619;-84
2023/01/10 07:54:32;;;;;;;;;;;;;;;19.33;38.93;100225.27;105885;1286;61221;-84
2023/01/10 07:56:57;;;;;;;;;;;;;;;19.33;39.12;100224.89;105892;1286;61315;-83
2023/01/10 07:59:23;;;;;;;;;;;;;;;19.31;39.05;100233.29;106126;1286;61252;-84
2023/01/10 08:01:48;;;;;;;;;;;;;;;19.27;39.32;100238.88;106041;1285;60155;-83
2023/01/10 08:04:15;;;;;;;;;;;;;;;19.24;39.35;100240.51;106059;1288;60073;-82
2023/01/10 08:06:42;;;;;;;;;;;;;;;19.22;39.39;100235.70;105938;1285;59959;-82
2023/01/10 08:09:08;;;;;;;;;;;;;;;19.20;39.35;100239.38;105904;1285;72567;-84
2023/01/10 08:11:34;;;;;;;;;;;;;;;19.21;39.49;100243.65;106023;1285;61256;-83
2023/01/10 08:14:00;;;;;;;;;;;;;;;19.19;39.52;100241.95;105959;1285;60357;-83
2023/01/10 08:16:25;;;;;;;;;;;;;;;19.18;39.62;100239.16;105881;1285;59953;-83
2023/01/10 08:18:52;;;;;;;;;;;;;;;19.19;39.63;100245.37;105967;1286;60210;-83
2023/01/10 08:21:18;;;;;;;;;;;;;;;19.20;39.64;100239.38;106066;1286;61294;-84
2023/01/10 08:23:44;;;;;;;;;;;;;;;19.23;39.51;100235.77;106052;1286;59975;-83
2023/01/10 08:26:09;;;;;;;;;;;;;;;19.26;39.71;100228.63;105955;1286;60031;-83
2023/01/10 08:28:35;;;;;;;;;;;;;;;19.29;39.81;100229.34;105370;1285;964149;-83
2023/01/10 08:31:07;;;;;;;;;;;;;;;19.31;39.74;100220.80;106199;1284;59512;-83
2023/01/10 08:33:32;;;;;;;;;;;;;;;19.33;39.71;100214.23;106087;1285;74499;-83
2023/01/10 08:35:58;;;;;;;;;;;;;;;19.34;39.87;100209.09;106064;1285;60911;-83
2023/01/10 08:38:23;;;;;;;;;;;;;;;19.37;39.91;100210.52;106171;1284;59523;-82
2023/01/10 08:40:49;;;;;;;;;;;;;;;19.39;40.03;100224.83;105941;1287;61376;-83
2023/01/10 08:43:15;;;;;;;;;;;;;;;19.40;39.95;100231.70;105893;1285;61247;-82
2023/01/10 08:45:40;;;;;;;;;;;;;;;19.41;40.06;100230.88;106031;1286;61301;-83
2023/01/10 08:48:08;;;;;;;;;;;;;;;19.43;40.12;100233.27;106012;1285;61269;-83
2023/01/10 08:50:33;;;;;;;;;;;;;;;19.44;40.12;100233.55;106016;1285;61318;-83
2023/01/10 08:52:59;;;;;;;;;;;;;;;19.45;40.09;100227.41;106039;1287;59816;-84
2023/01/10 08:55:27;;;;;;;;;;;;;;;19.47;40.20;100228.91;106077;1285;60140;-84
2023/01/10 08:57:53;;;;;;;;;;;;;;;19.48;40.20;100225.61;106007;1285;61973;-84
2023/01/10 09:00:19;;;;;;;;;;;;;;;19.50;40.30;100222.96;106003;1285;59910;-82
2023/01/10 09:02:44;;;;;;;;;;;;;;;19.50;40.43;100223.84;106065;1285;59384;-84
2023/01/10 09:05:11;;;;;;;;;;;;;;;19.49;40.46;100221.05;106166;1284;61311;-83
2023/01/10 09:07:37;;;;;;;;;;;;;;;19.47;40.67;100220.48;106145;1284;59756;-84
2023/01/10 09:10:03;;;;;;;;;;;;;;;19.45;40.76;100222.41;106169;1284;59629;-84
2023/01/10 09:15:13;;;;;;;;;;;;;;;19.39;40.71;100231.05;105942;1285;74534;-82
2023/01/10 09:17:39;;;;;;;;;;;;;;;19.34;40.65;100228.02;106165;1285;62473;-82
2023/01/10 09:20:08;;;;;;;;;;;;;;;19.31;40.67;100230.45;106114;1285;61212;-84
2023/01/10 09:22:35;;;;;;;;;;;;;;;19.26;40.49;100225.03;106183;1288;72615;-83
2023/01/10 09:25:00;;;;;;;;;;;;;;;19.21;40.45;100221.80;106166;1284;60196;-82
2023/01/10 09:27:26;;;;;;;;;;;;;;;19.19;40.57;100214.29;106230;1284;59391;-82
2023/01/10 09:29:51;;;;;;;;;;;;;;;19.20;40.47;100210.70;106218;1284;61193;-83
2023/01/10 09:32:17;;;;;;;;;;;;;;;19.23;40.64;100203.69;106056;1288;59616;-83
2023/01/10 09:34:42;;;;;;;;;;;;;;;19.27;40.87;100196.63;106222;1285;59812;-83
2023/01/10 09:37:08;;;;;;;;;;;;;;;19.30;40.94;100190.52;106027;1285;74500;-83
2023/01/10 09:39:33;;;;;;;;;;;;;;;19.33;40.86;100178.49;105964;1284;61418;-83
2023/01/10 09:42:02;;;;;;;;;;;;;;;19.35;40.89;100178.67;106185;1288;61007;-82
2023/01/10 09:44:34;;;;;;;;;;;;;;;19.37;40.85;100181.97;106213;1283;72577;-83
2023/01/10 09:47:21;;;;;;;;;;;;;;;19.39;41.00;100179.53;106246;1284;74527;-82
2023/01/10 09:49:50;;;;;;;;;;;;;;;19.40;40.99;100175.27;106177;1285;60646;-82
2023/01/10 09:52:19;;;;;;;;;;;;;;;19.42;41.05;100166.94;106165;1284;61173;-82
2023/01/10 09:54:44;;;;;;;;;;;;;;;19.44;40.89;100162.17;106181;1285;72542;-82
2023/01/10 09:57:12;;;;;;;;;;;;;;;19.46;41.01;100163.30;106036;1285;60524;-82
2023/01/10 09:59:38;;;;;;;;;;;;;;;19.44;40.84;100153.05;106295;1283;59779;-84
2023/01/10 10:02:17;;;;;;;;;;;;;;;19.39;40.70;100143.24;106390;1284;62375;-83
2023/01/10 10:04:45;;;;;;;;;;;;;;;19.30;40.81;100144.84;105810;1285;74615;-84
2023/01/10 10:07:14;;;;;;;;;;;;;;;19.13;40.67;100147.83;106086;1285;74430;-84
2023/01/10 10:09:41;;;;;;;;;;;;;;;18.91;40.82;100147.31;106081;1285;59988;-83
2023/01/10 10:12:06;;;;;;;;;;;;;;;18.69;40.93;100144.91;106200;1284;60151;-83
2023/01/10 10:14:50;;;;;;;;;;;;;;;18.56;40.90;100138.92;106239;1285;59574;-83
2023/01/10 10:17:31;;;;;;;;;;;;;;;18.36;40.97;100140.52;106171;1285;75403;-84
2023/01/10 10:20:03;;;;;;;;;;;;;;;18.23;41.36;100137.83;106209;1284;59970;-84
2023/01/10 10:22:38;;;;;;;;;;;;;;;18.26;41.48;100134.22;106233;1284;60419;-84
2023/01/10 10:25:09;;;;;;;;;;;;;;;18.32;41.35;100129.50;106553;1284;72582;-84
2023/01/10 10:27:38;;;;;;;;;;;;;;;18.36;41.36;100128.71;106705;1284;75271;-84
2023/01/10 10:30:15;;;;;;;;;;;;;;;18.29;41.40;100123.68;106668;1284;60051;-84
2023/01/10 10:32:44;;;;;;;;;;;;;;;18.30;41.47;100115.76;106201;1285;61064;-85
2023/01/10 10:35:10;;;;;;;;;;;;;;;18.38;41.65;100114.70;106142;1285;73435;-84
2023/01/10 10:37:37;;;;;;;;;;;;;;;18.46;41.54;100119.48;106264;1285;61203;-83
2023/01/10 10:40:07;;;;;;;;;;;;;;;18.52;41.41;100117.64;106190;1284;61214;-83
2023/01/10 10:42:35;;;;;;;;;;;;;;;18.58;41.57;100112.20;106705;1284;62252;-86
2023/01/10 10:45:01;;;;;;;;;;;;;;;18.66;41.58;100103.29;106527;1284;72184;-84
2023/01/10 10:47:30;;;;;;;;;;;;;;;18.68;41.57;100095.07;106354;1284;75395;-84
2023/01/10 10:50:07;;;;;;;;;;;;;;;18.72;41.43;100089.28;106590;1285;59955;-84
2023/01/10 10:52:33;;;;;;;;;;;;;;;18.75;41.46;100083.17;106422;1285;60003;-83
2023/01/10 10:54:59;;;;;;;;;;;;;;;18.74;41.36;100077.02;106272;1284;59353;-84
2023/01/10 10:57:50;;;;;;;;;;;;;;;18.77;41.42;100073.75;106012;1285;59995;-84
2023/01/10 11:00:16;;;;;;;;;;;;;;;18.83;41.28;100066.05;105663;1289;60979;-84
2023/01/10 11:02:46;;;;;;;;;;;;;;;18.86;41.18;100066.36;105356;1294;59996;-84
2023/01/10 11:05:15;;;;;;;;;;;;;;;18.81;41.41;100065.60;105487;1291;72563;-84
2023/01/10 11:07:41;;;;;;;;;;;;;;;18.75;41.18;100064.98;105437;1292;75491;-84
2023/01/10 11:12:57;;;;;;;;;;;;;;;18.56;41.38;100061.39;105568;1289;61111;-85
2023/01/10 11:15:58;;;;;;;;;;;;;;;18.48;41.59;100059.98;105545;1291;61119;-84
2023/01/10 11:18:28;;;;;;;;;;;;;;;18.55;41.80;100056.06;105177;1297;74369;-84
2023/01/10 11:20:56;;;;;;;;;;;;;;;18.62;41.66;100053.32;105156;1297;60372;-86
2023/01/10 11:23:41;;;;;;;;;;;;;;;18.64;41.69;100051.02;105180;1297;61342;-85
2023/01/10 11:26:08;;;;;;;;;;;;;;;18.68;41.67;100053.36;105105;1297;73611;-84
2023/01/10 11:28:35;;;;;;;;;;;;;;;18.71;41.63;100048.73;105046;1298;76564;-83
2023/01/10 11:31:01;;;;;;;;;;;;;;;18.72;41.60;100049.16;105047;1297;61235;-84
2023/01/10 11:33:30;;;;;;;;;;;;;;;18.75;41.65;100049.63;105109;1297;59709;-83
2023/01/10 11:35:59;;;;;;;;;;;;;;;18.79;41.61;100042.60;105092;1297;72523;-84
2023/01/10 11:38:28;;;;;;;;;;;;;;;18.83;41.57;100042.34;105517;1294;74607;-83
2023/01/10 11:41:01;;;;;;;;;;;;;;;18.82;41.63;100043.84;105361;1293;61295;-82
2023/01/10 11:43:29;;;;;;;;;;;;;;;18.82;41.62;100040.64;105600;1291;61277;-82
2023/01/10 11:46:14;;;;;;;;;;;;;;;18.83;41.80;100031.96;105541;1292;72849;-83
2023/01/10 11:48:50;;;;;;;;;;;;;;;18.87;41.98;100024.16;105434;1292;74268;-83
2023/01/10 11:51:25;;;;;;;;;;;;;;;18.92;42.03;100028.63;105559;1293;60226;-82
2023/01/10 11:54:04;;;;;;;;;;;;;;;18.96;42.02;100023.05;105938;1286;60431;-84
2023/01/10 11:56:30;;;;;;;;;;;;;;;18.99;42.03;100020.70;106062;1287;73689;-84
2023/01/10 11:58:56;;;;;;;;;;;;;;;19.02;42.14;100020.94;105982;1287;61112;-84
2023/01/10 12:01:26;;;;;;;;;;;;;;;19.05;42.05;100021.27;106299;1286;59782;-85
2023/01/10 12:03:51;;;;;;;;;;;;;;;19.06;42.20;100024.44;106465;1284;60099;-83
2023/01/10 12:06:41;;;;;;;;;;;;;;;18.85;41.96;100021.30;105987;1285;60062;-83
2023/01/10 12:09:27;;;;;;;;;;;;;;;18.58;42.22;100017.77;105567;1290;74862;-83
2023/01/10 12:12:00;;;;;;;;;;;;;;;18.52;42.52;100016.90;105470;1291;61102;-83
2023/01/10 12:14:25;;;;;;;;;;;;;;;18.55;42.62;100026.37;105576;1289;61112;-82
2023/01/10 12:16:57;;;;;;;;;;;;;;;18.53;42.75;100027.70;105564;1291;59291;-83
2023/01/10 12:19:23;;;;;;;;;;;;;;;18.57;42.69;100025.67;105571;1291;74538;-84
2023/01/10 12:21:50;;;;;;;;;;;;;;;18.62;42.67;100022.98;105615;1289;59811;-83
2023/01/10 12:24:17;;;;;;;;;;;;;;;18.67;42.83;100029.23;105456;1291;60919;-84
2023/01/10 12:26:43;;;;;;;;;;;;;;;18.70;42.75;100025.22;105574;1291;72333;-84
2023/01/10 12:29:14;;;;;;;;;;;;;;;18.69;42.76;100027.29;105621;1289;61054;-85
2023/01/10 12:31:40;;;;;;;;;;;;;;;18.68;42.73;100025.21;105518;1291;60003;-84
2023/01/10 12:34:11;;;;;;;;;;;;;;;18.69;42.82;100025.86;105457;1291;60470;-82
2023/01/10 12:36:50;;;;;;;;;;;;;;;18.69;42.92;100021.40;105544;1290;72571;-83
2023/01/10 12:39:18;;;;;;;;;;;;;;;18.73;43.00;100018.83;105590;1290;74479;-84
2023/01/10 12:44:48;;;;;;;;;;;;;;;18.81;43.06;100010.19;105583;1290;61005;-84
2023/01/10 12:47:32;;;;;;;;;;;;;;;18.84;42.94;100011.58;105875;1287;74570;-84
2023/01/10 12:49:59;;;;;;;;;;;;;;;18.84;43.17;100011.73;105886;1287;74496;-84
2023/01/10 12:52:31;;;;;;;;;;;;;;;18.85;42.98;100011.35;105962;1284;63899;-84
2023/01/10 12:54:56;;;;;;;;;;;;;;;18.86;43.17;100010.19;105933;1284;61084;-84